sensor_id;sensor_type;location;lat;lon;timestamp;P1;durP1;ratioP1;P2;durP2;ratioP2
16037;SDS011;8123;50.906;6.172;2024-02-21T00:00:04;33.83;;;10.00;;
16037;SDS011;8123;50.906;6.172;2024-02-21T00:02:30;24.03;;;8.97;;
16037;SDS011;8123;50.906;6.172;2024-02-21T00:04:56;27.90;;;9.40;;
16037;SDS011;8123;50.906;6.172;2024-02-21T00:07:21;22.50;;;10.33;;
16037;SDS011;8123;50.906;6.172;2024-02-21T00:09:47;22.10;;;9.30;;
16037;SDS011;8123;50.906;6.172;2024-02-21T00:12:14;27.13;;;10.20;;
16037;SDS011;8123;50.906;6.172;2024-02-21T00:14:39;22.60;;;9.83;;
16037;SDS011;8123;50.906;6.172;2024-02-21T00:17:05;28.13;;;10.50;;
16037;SDS011;8123;50.906;6.172;2024-02-21T00:19:31;25.87;;;9.90;;
16037;SDS011;8123;50.906;6.172;2024-02-21T00:21:56;28.50;;;10.30;;
16037;SDS011;8123;50.906;6.172;2024-02-21T00:24:22;28.27;;;10.80;;
16037;SDS011;8123;50.906;6.172;2024-02-21T00:26:48;29.27;;;9.70;;
16037;SDS011;8123;50.906;6.172;2024-02-21T00:29:13;34.73;;;9.97;;
16037;SDS011;8123;50.906;6.172;2024-02-21T00:31:39;34.10;;;10.83;;
16037;SDS011;8123;50.906;6.172;2024-02-21T00:34:05;41.50;;;10.70;;
16037;SDS011;8123;50.906;6.172;2024-02-21T00:36:30;26.90;;;10.77;;
16037;SDS011;8123;50.906;6.172;2024-02-21T00:38:56;21.17;;;8.70;;
16037;SDS011;8123;50.906;6.172;2024-02-21T00:41:21;32.00;;;9.30;;
16037;SDS011;8123;50.906;6.172;2024-02-21T00:43:47;23.77;;;10.00;;
16037;SDS011;8123;50.906;6.172;2024-02-21T00:46:15;25.50;;;10.30;;
16037;SDS011;8123;50.906;6.172;2024-02-21T00:48:40;33.10;;;9.73;;
16037;SDS011;8123;50.906;6.172;2024-02-21T00:51:06;23.00;;;9.80;;
16037;SDS011;8123;50.906;6.172;2024-02-21T00:53:32;29.60;;;11.80;;
16037;SDS011;8123;50.906;6.172;2024-02-21T00:55:57;37.60;;;10.80;;
16037;SDS011;8123;50.906;6.172;2024-02-21T00:58:23;38.63;;;11.40;;
16037;SDS011;8123;50.906;6.172;2024-02-21T01:00:49;34.07;;;10.40;;
16037;SDS011;8123;50.906;6.172;2024-02-21T01:03:14;32.13;;;10.80;;
16037;SDS011;8123;50.906;6.172;2024-02-21T01:05:40;34.83;;;10.87;;
16037;SDS011;8123;50.906;6.172;2024-02-21T01:08:05;24.93;;;11.17;;
16037;SDS011;8123;50.906;6.172;2024-02-21T01:10:31;33.40;;;11.93;;
16037;SDS011;8123;50.906;6.172;2024-02-21T01:12:57;36.03;;;10.03;;
16037;SDS011;8123;50.906;6.172;2024-02-21T01:15:22;24.80;;;10.20;;
16037;SDS011;8123;50.906;6.172;2024-02-21T01:17:48;33.13;;;13.77;;
16037;SDS011;8123;50.906;6.172;2024-02-21T01:20:15;43.67;;;11.17;;
16037;SDS011;8123;50.906;6.172;2024-02-21T01:22:42;23.23;;;9.97;;
16037;SDS011;8123;50.906;6.172;2024-02-21T01:25:08;34.53;;;11.57;;
16037;SDS011;8123;50.906;6.172;2024-02-21T01:27:33;33.53;;;11.00;;
16037;SDS011;8123;50.906;6.172;2024-02-21T01:29:59;43.50;;;11.40;;
16037;SDS011;8123;50.906;6.172;2024-02-21T01:32:25;36.00;;;10.57;;
16037;SDS011;8123;50.906;6.172;2024-02-21T01:34:51;22.30;;;10.20;;
16037;SDS011;8123;50.906;6.172;2024-02-21T01:37:16;41.17;;;10.40;;
16037;SDS011;8123;50.906;6.172;2024-02-21T01:39:42;19.37;;;9.77;;
16037;SDS011;8123;50.906;6.172;2024-02-21T01:42:07;48.53;;;11.30;;
16037;SDS011;8123;50.906;6.172;2024-02-21T01:44:34;32.60;;;10.37;;
16037;SDS011;8123;50.906;6.172;2024-02-21T01:46:59;29.10;;;10.83;;
16037;SDS011;8123;50.906;6.172;2024-02-21T01:49:25;26.27;;;10.70;;
16037;SDS011;8123;50.906;6.172;2024-02-21T01:51:52;25.23;;;10.37;;
16037;SDS011;8123;50.906;6.172;2024-02-21T01:54:18;25.80;;;9.10;;
16037;SDS011;8123;50.906;6.172;2024-02-21T01:56:44;21.87;;;9.90;;
16037;SDS011;8123;50.906;6.172;2024-02-21T01:59:11;32.33;;;10.73;;
16037;SDS011;8123;50.906;6.172;2024-02-21T02:01:38;33.93;;;9.70;;
16037;SDS011;8123;50.906;6.172;2024-02-21T02:04:04;29.73;;;8.77;;
16037;SDS011;8123;50.906;6.172;2024-02-21T02:06:31;34.27;;;10.90;;
16037;SDS011;8123;50.906;6.172;2024-02-21T02:08:57;36.53;;;9.33;;
16037;SDS011;8123;50.906;6.172;2024-02-21T02:11:22;30.50;;;10.07;;
16037;SDS011;8123;50.906;6.172;2024-02-21T02:13:48;22.03;;;10.17;;
16037;SDS011;8123;50.906;6.172;2024-02-21T02:16:14;28.37;;;10.40;;
16037;SDS011;8123;50.906;6.172;2024-02-21T02:18:39;30.17;;;9.33;;
16037;SDS011;8123;50.906;6.172;2024-02-21T02:21:06;35.20;;;9.23;;
16037;SDS011;8123;50.906;6.172;2024-02-21T02:23:38;22.40;;;9.10;;
16037;SDS011;8123;50.906;6.172;2024-02-21T02:26:05;31.70;;;9.60;;
16037;SDS011;8123;50.906;6.172;2024-02-21T02:28:32;28.13;;;9.37;;
16037;SDS011;8123;50.906;6.172;2024-02-21T02:30:58;35.83;;;9.27;;
16037;SDS011;8123;50.906;6.172;2024-02-21T02:33:23;22.40;;;9.23;;
16037;SDS011;8123;50.906;6.172;2024-02-21T02:35:49;29.70;;;9.87;;
16037;SDS011;8123;50.906;6.172;2024-02-21T02:38:14;26.00;;;9.00;;
16037;SDS011;8123;50.906;6.172;2024-02-21T02:40:40;39.13;;;10.33;;
16037;SDS011;8123;50.906;6.172;2024-02-21T02:43:06;21.17;;;7.37;;
16037;SDS011;8123;50.906;6.172;2024-02-21T02:45:32;21.80;;;8.40;;
16037;SDS011;8123;50.906;6.172;2024-02-21T02:47:58;20.73;;;8.27;;
16037;SDS011;8123;50.906;6.172;2024-02-21T02:50:24;29.07;;;8.00;;
16037;SDS011;8123;50.906;6.172;2024-02-21T02:52:51;23.07;;;8.80;;
16037;SDS011;8123;50.906;6.172;2024-02-21T02:55:17;18.40;;;8.13;;
16037;SDS011;8123;50.906;6.172;2024-02-21T02:57:43;29.60;;;8.70;;
16037;SDS011;8123;50.906;6.172;2024-02-21T03:00:10;21.00;;;8.37;;
16037;SDS011;8123;50.906;6.172;2024-02-21T03:02:37;27.43;;;8.87;;
16037;SDS011;8123;50.906;6.172;2024-02-21T03:05:11;22.57;;;9.43;;
16037;SDS011;8123;50.906;6.172;2024-02-21T03:07:41;17.53;;;7.67;;
16037;SDS011;8123;50.906;6.172;2024-02-21T03:10:07;26.67;;;9.70;;
16037;SDS011;8123;50.906;6.172;2024-02-21T03:12:33;23.83;;;9.30;;
16037;SDS011;8123;50.906;6.172;2024-02-21T03:14:59;22.90;;;9.87;;
16037;SDS011;8123;50.906;6.172;2024-02-21T03:17:24;31.37;;;10.30;;
16037;SDS011;8123;50.906;6.172;2024-02-21T03:19:52;26.07;;;10.10;;
16037;SDS011;8123;50.906;6.172;2024-02-21T03:22:17;27.70;;;8.87;;
16037;SDS011;8123;50.906;6.172;2024-02-21T03:24:43;29.97;;;8.70;;
16037;SDS011;8123;50.906;6.172;2024-02-21T03:27:09;17.60;;;8.43;;
16037;SDS011;8123;50.906;6.172;2024-02-21T03:29:35;21.00;;;9.30;;
16037;SDS011;8123;50.906;6.172;2024-02-21T03:32:01;27.60;;;9.47;;
16037;SDS011;8123;50.906;6.172;2024-02-21T03:34:26;25.17;;;8.37;;
16037;SDS011;8123;50.906;6.172;2024-02-21T03:36:52;32.13;;;10.60;;
16037;SDS011;8123;50.906;6.172;2024-02-21T03:39:18;22.67;;;8.97;;
16037;SDS011;8123;50.906;6.172;2024-02-21T03:41:43;23.73;;;8.47;;
16037;SDS011;8123;50.906;6.172;2024-02-21T03:44:09;30.43;;;9.70;;
16037;SDS011;8123;50.906;6.172;2024-02-21T03:46:35;23.40;;;8.33;;
16037;SDS011;8123;50.906;6.172;2024-02-21T03:49:00;27.93;;;8.17;;
16037;SDS011;8123;50.906;6.172;2024-02-21T03:51:26;29.00;;;8.90;;
16037;SDS011;8123;50.906;6.172;2024-02-21T03:53:51;35.07;;;8.80;;
16037;SDS011;8123;50.906;6.172;2024-02-21T03:56:17;24.00;;;8.83;;
16037;SDS011;8123;50.906;6.172;2024-02-21T03:58:43;19.33;;;7.70;;
16037;SDS011;8123;50.906;6.172;2024-02-21T04:01:08;25.57;;;9.10;;
16037;SDS011;8123;50.906;6.172;2024-02-21T04:03:34;25.10;;;9.27;;
16037;SDS011;8123;50.906;6.172;2024-02-21T04:06:00;21.07;;;8.13;;
16037;SDS011;8123;50.906;6.172;2024-02-21T04:08:26;20.57;;;8.87;;
16037;SDS011;8123;50.906;6.172;2024-02-21T04:10:51;19.33;;;8.50;;
16037;SDS011;8123;50.906;6.172;2024-02-21T04:13:17;17.90;;;8.10;;
16037;SDS011;8123;50.906;6.172;2024-02-21T04:15:42;19.77;;;8.13;;
16037;SDS011;8123;50.906;6.172;2024-02-21T04:18:08;19.73;;;9.13;;
16037;SDS011;8123;50.906;6.172;2024-02-21T04:20:34;16.13;;;8.13;;
16037;SDS011;8123;50.906;6.172;2024-02-21T04:23:00;16.63;;;8.27;;
16037;SDS011;8123;50.906;6.172;2024-02-21T04:25:25;21.70;;;7.57;;
16037;SDS011;8123;50.906;6.172;2024-02-21T04:27:51;20.57;;;7.80;;
16037;SDS011;8123;50.906;6.172;2024-02-21T04:30:17;21.20;;;9.13;;
16037;SDS011;8123;50.906;6.172;2024-02-21T04:32:43;18.67;;;6.77;;
16037;SDS011;8123;50.906;6.172;2024-02-21T04:35:08;28.00;;;8.20;;
16037;SDS011;8123;50.906;6.172;2024-02-21T04:37:34;22.43;;;8.93;;
16037;SDS011;8123;50.906;6.172;2024-02-21T04:39:59;18.80;;;8.43;;
16037;SDS011;8123;50.906;6.172;2024-02-21T04:42:25;26.33;;;7.57;;
16037;SDS011;8123;50.906;6.172;2024-02-21T04:44:51;18.20;;;7.80;;
16037;SDS011;8123;50.906;6.172;2024-02-21T04:47:17;13.97;;;6.53;;
16037;SDS011;8123;50.906;6.172;2024-02-21T04:49:44;24.13;;;8.30;;
16037;SDS011;8123;50.906;6.172;2024-02-21T04:52:11;21.77;;;8.10;;
16037;SDS011;8123;50.906;6.172;2024-02-21T04:54:36;24.30;;;7.53;;
16037;SDS011;8123;50.906;6.172;2024-02-21T04:57:02;23.43;;;7.70;;
16037;SDS011;8123;50.906;6.172;2024-02-21T04:59:28;24.23;;;7.67;;
16037;SDS011;8123;50.906;6.172;2024-02-21T05:01:54;13.20;;;6.40;;
16037;SDS011;8123;50.906;6.172;2024-02-21T05:04:20;24.53;;;7.57;;
16037;SDS011;8123;50.906;6.172;2024-02-21T05:06:45;19.93;;;7.33;;
16037;SDS011;8123;50.906;6.172;2024-02-21T05:09:11;14.17;;;6.53;;
16037;SDS011;8123;50.906;6.172;2024-02-21T05:11:37;24.70;;;6.20;;
16037;SDS011;8123;50.906;6.172;2024-02-21T05:14:03;22.13;;;6.10;;
16037;SDS011;8123;50.906;6.172;2024-02-21T05:16:29;21.53;;;6.67;;
16037;SDS011;8123;50.906;6.172;2024-02-21T05:18:56;22.00;;;7.23;;
16037;SDS011;8123;50.906;6.172;2024-02-21T05:21:22;14.30;;;5.47;;
16037;SDS011;8123;50.906;6.172;2024-02-21T05:23:53;16.83;;;6.40;;
16037;SDS011;8123;50.906;6.172;2024-02-21T05:26:25;17.13;;;7.13;;
16037;SDS011;8123;50.906;6.172;2024-02-21T05:28:52;23.93;;;7.00;;
16037;SDS011;8123;50.906;6.172;2024-02-21T05:31:18;17.53;;;8.13;;
16037;SDS011;8123;50.906;6.172;2024-02-21T05:33:45;27.70;;;6.83;;
16037;SDS011;8123;50.906;6.172;2024-02-21T05:36:11;18.10;;;5.90;;
16037;SDS011;8123;50.906;6.172;2024-02-21T05:38:37;13.00;;;6.00;;
16037;SDS011;8123;50.906;6.172;2024-02-21T05:41:03;11.50;;;5.57;;
16037;SDS011;8123;50.906;6.172;2024-02-21T05:43:29;16.30;;;6.23;;
16037;SDS011;8123;50.906;6.172;2024-02-21T05:45:54;11.50;;;6.13;;
16037;SDS011;8123;50.906;6.172;2024-02-21T05:48:21;10.23;;;5.00;;
16037;SDS011;8123;50.906;6.172;2024-02-21T05:50:47;11.23;;;6.43;;
16037;SDS011;8123;50.906;6.172;2024-02-21T05:53:13;14.03;;;5.40;;
16037;SDS011;8123;50.906;6.172;2024-02-21T05:55:39;18.10;;;6.60;;
16037;SDS011;8123;50.906;6.172;2024-02-21T05:58:05;13.27;;;5.83;;
16037;SDS011;8123;50.906;6.172;2024-02-21T06:00:31;22.73;;;7.57;;
16037;SDS011;8123;50.906;6.172;2024-02-21T06:02:57;18.23;;;6.13;;
16037;SDS011;8123;50.906;6.172;2024-02-21T06:05:23;18.53;;;7.20;;
16037;SDS011;8123;50.906;6.172;2024-02-21T06:07:48;25.73;;;7.10;;
16037;SDS011;8123;50.906;6.172;2024-02-21T06:10:14;15.67;;;6.40;;
16037;SDS011;8123;50.906;6.172;2024-02-21T06:12:40;20.07;;;8.00;;
16037;SDS011;8123;50.906;6.172;2024-02-21T06:15:05;20.70;;;8.07;;
16037;SDS011;8123;50.906;6.172;2024-02-21T06:17:31;25.93;;;6.97;;
16037;SDS011;8123;50.906;6.172;2024-02-21T06:19:57;17.50;;;6.40;;
16037;SDS011;8123;50.906;6.172;2024-02-21T06:22:23;30.07;;;6.67;;
16037;SDS011;8123;50.906;6.172;2024-02-21T06:24:48;23.70;;;6.30;;
16037;SDS011;8123;50.906;6.172;2024-02-21T06:27:15;12.73;;;5.60;;
16037;SDS011;8123;50.906;6.172;2024-02-21T06:29:41;19.97;;;5.77;;
16037;SDS011;8123;50.906;6.172;2024-02-21T06:32:07;15.03;;;5.53;;
16037;SDS011;8123;50.906;6.172;2024-02-21T06:34:33;20.60;;;6.67;;
16037;SDS011;8123;50.906;6.172;2024-02-21T06:36:58;17.50;;;5.40;;
16037;SDS011;8123;50.906;6.172;2024-02-21T06:39:24;11.20;;;4.10;;
16037;SDS011;8123;50.906;6.172;2024-02-21T06:41:50;13.10;;;4.20;;
16037;SDS011;8123;50.906;6.172;2024-02-21T06:44:18;14.00;;;4.23;;
16037;SDS011;8123;50.906;6.172;2024-02-21T06:46:44;15.52;;;4.93;;
16037;SDS011;8123;50.906;6.172;2024-02-21T06:49:10;24.43;;;6.47;;
16037;SDS011;8123;50.906;6.172;2024-02-21T06:51:44;20.63;;;5.40;;
16037;SDS011;8123;50.906;6.172;2024-02-21T06:54:10;13.10;;;5.90;;
16037;SDS011;8123;50.906;6.172;2024-02-21T06:56:36;27.03;;;6.40;;
16037;SDS011;8123;50.906;6.172;2024-02-21T06:59:02;19.93;;;5.80;;
16037;SDS011;8123;50.906;6.172;2024-02-21T07:01:28;21.33;;;7.37;;
16037;SDS011;8123;50.906;6.172;2024-02-21T07:03:54;18.43;;;6.97;;
16037;SDS011;8123;50.906;6.172;2024-02-21T07:06:21;12.33;;;5.73;;
16037;SDS011;8123;50.906;6.172;2024-02-21T07:08:47;20.80;;;6.57;;
16037;SDS011;8123;50.906;6.172;2024-02-21T07:11:12;21.67;;;7.17;;
16037;SDS011;8123;50.906;6.172;2024-02-21T07:13:38;15.10;;;6.60;;
16037;SDS011;8123;50.906;6.172;2024-02-21T07:16:03;16.70;;;6.63;;
16037;SDS011;8123;50.906;6.172;2024-02-21T07:18:30;18.07;;;7.20;;
16037;SDS011;8123;50.906;6.172;2024-02-21T07:20:55;20.97;;;6.37;;
16037;SDS011;8123;50.906;6.172;2024-02-21T07:23:21;14.40;;;6.50;;
16037;SDS011;8123;50.906;6.172;2024-02-21T07:25:47;19.33;;;6.17;;
16037;SDS011;8123;50.906;6.172;2024-02-21T07:28:12;17.90;;;6.77;;
16037;SDS011;8123;50.906;6.172;2024-02-21T07:30:39;16.33;;;5.93;;
16037;SDS011;8123;50.906;6.172;2024-02-21T07:33:04;23.97;;;7.40;;
16037;SDS011;8123;50.906;6.172;2024-02-21T07:35:32;21.27;;;7.43;;
16037;SDS011;8123;50.906;6.172;2024-02-21T07:37:57;12.80;;;5.97;;
16037;SDS011;8123;50.906;6.172;2024-02-21T07:40:23;21.50;;;7.77;;
16037;SDS011;8123;50.906;6.172;2024-02-21T07:42:49;9.93;;;6.03;;
16037;SDS011;8123;50.906;6.172;2024-02-21T07:45:14;18.03;;;6.73;;
16037;SDS011;8123;50.906;6.172;2024-02-21T07:47:40;14.83;;;5.83;;
16037;SDS011;8123;50.906;6.172;2024-02-21T07:50:06;20.40;;;7.53;;
16037;SDS011;8123;50.906;6.172;2024-02-21T07:52:32;27.23;;;7.73;;
16037;SDS011;8123;50.906;6.172;2024-02-21T07:54:57;12.83;;;6.47;;
16037;SDS011;8123;50.906;6.172;2024-02-21T07:57:23;17.57;;;7.03;;
16037;SDS011;8123;50.906;6.172;2024-02-21T07:59:49;26.03;;;6.20;;
16037;SDS011;8123;50.906;6.172;2024-02-21T08:02:15;11.73;;;5.50;;
16037;SDS011;8123;50.906;6.172;2024-02-21T08:04:40;18.97;;;6.00;;
16037;SDS011;8123;50.906;6.172;2024-02-21T08:07:06;12.60;;;5.63;;
16037;SDS011;8123;50.906;6.172;2024-02-21T08:09:32;13.60;;;5.43;;
16037;SDS011;8123;50.906;6.172;2024-02-21T08:11:58;8.30;;;4.70;;
16037;SDS011;8123;50.906;6.172;2024-02-21T08:14:23;6.73;;;4.60;;
16037;SDS011;8123;50.906;6.172;2024-02-21T08:16:50;16.00;;;4.70;;
16037;SDS011;8123;50.906;6.172;2024-02-21T08:19:18;14.20;;;5.60;;
16037;SDS011;8123;50.906;6.172;2024-02-21T08:21:43;12.37;;;4.90;;
16037;SDS011;8123;50.906;6.172;2024-02-21T08:24:11;16.80;;;4.07;;
16037;SDS011;8123;50.906;6.172;2024-02-21T08:26:40;10.80;;;4.37;;
16037;SDS011;8123;50.906;6.172;2024-02-21T08:29:06;10.97;;;4.47;;
16037;SDS011;8123;50.906;6.172;2024-02-21T08:31:31;11.97;;;3.53;;
16037;SDS011;8123;50.906;6.172;2024-02-21T08:34:00;23.63;;;7.50;;
16037;SDS011;8123;50.906;6.172;2024-02-21T08:36:30;23.47;;;7.90;;
16037;SDS011;8123;50.906;6.172;2024-02-21T08:38:57;20.73;;;6.87;;
16037;SDS011;8123;50.906;6.172;2024-02-21T08:41:23;18.07;;;7.13;;
16037;SDS011;8123;50.906;6.172;2024-02-21T08:43:50;10.00;;;4.90;;
16037;SDS011;8123;50.906;6.172;2024-02-21T08:46:17;10.07;;;4.80;;
16037;SDS011;8123;50.906;6.172;2024-02-21T08:48:43;11.00;;;4.70;;
16037;SDS011;8123;50.906;6.172;2024-02-21T08:51:10;5.80;;;3.93;;
16037;SDS011;8123;50.906;6.172;2024-02-21T08:53:36;14.93;;;4.57;;
16037;SDS011;8123;50.906;6.172;2024-02-21T08:56:03;12.97;;;3.60;;
16037;SDS011;8123;50.906;6.172;2024-02-21T08:58:29;11.03;;;5.73;;
16037;SDS011;8123;50.906;6.172;2024-02-21T09:00:54;8.60;;;3.67;;
16037;SDS011;8123;50.906;6.172;2024-02-21T09:03:20;10.57;;;3.70;;
16037;SDS011;8123;50.906;6.172;2024-02-21T09:05:46;8.57;;;4.00;;
16037;SDS011;8123;50.906;6.172;2024-02-21T09:08:12;11.73;;;3.70;;
16037;SDS011;8123;50.906;6.172;2024-02-21T09:10:39;15.00;;;4.00;;
16037;SDS011;8123;50.906;6.172;2024-02-21T09:13:04;5.53;;;3.73;;
16037;SDS011;8123;50.906;6.172;2024-02-21T09:15:31;9.80;;;3.43;;
16037;SDS011;8123;50.906;6.172;2024-02-21T09:17:57;11.13;;;4.03;;
16037;SDS011;8123;50.906;6.172;2024-02-21T09:20:22;13.97;;;3.37;;
16037;SDS011;8123;50.906;6.172;2024-02-21T09:22:48;6.70;;;3.37;;
16037;SDS011;8123;50.906;6.172;2024-02-21T09:25:13;12.50;;;4.10;;
16037;SDS011;8123;50.906;6.172;2024-02-21T09:27:39;12.30;;;4.37;;
16037;SDS011;8123;50.906;6.172;2024-02-21T09:30:05;16.03;;;4.17;;
16037;SDS011;8123;50.906;6.172;2024-02-21T09:32:31;8.50;;;4.47;;
16037;SDS011;8123;50.906;6.172;2024-02-21T09:35:00;8.80;;;3.50;;
16037;SDS011;8123;50.906;6.172;2024-02-21T09:37:25;10.83;;;3.87;;
16037;SDS011;8123;50.906;6.172;2024-02-21T09:39:51;9.27;;;3.57;;
16037;SDS011;8123;50.906;6.172;2024-02-21T09:42:19;16.10;;;4.83;;
16037;SDS011;8123;50.906;6.172;2024-02-21T09:44:46;19.50;;;5.00;;
16037;SDS011;8123;50.906;6.172;2024-02-21T09:47:16;14.67;;;4.60;;
16037;SDS011;8123;50.906;6.172;2024-02-21T09:49:43;13.60;;;4.60;;
16037;SDS011;8123;50.906;6.172;2024-02-21T09:52:09;8.10;;;4.43;;
16037;SDS011;8123;50.906;6.172;2024-02-21T09:54:38;10.87;;;4.10;;
16037;SDS011;8123;50.906;6.172;2024-02-21T09:57:07;10.87;;;3.87;;
16037;SDS011;8123;50.906;6.172;2024-02-21T09:59:33;8.57;;;3.80;;
16037;SDS011;8123;50.906;6.172;2024-02-21T10:01:59;13.80;;;4.33;;
16037;SDS011;8123;50.906;6.172;2024-02-21T10:04:25;7.97;;;4.40;;
16037;SDS011;8123;50.906;6.172;2024-02-21T10:06:51;12.40;;;4.00;;
16037;SDS011;8123;50.906;6.172;2024-02-21T10:09:25;5.90;;;3.40;;
16037;SDS011;8123;50.906;6.172;2024-02-21T10:11:55;19.53;;;4.13;;
16037;SDS011;8123;50.906;6.172;2024-02-21T10:14:21;12.20;;;3.77;;
16037;SDS011;8123;50.906;6.172;2024-02-21T10:16:47;10.33;;;4.17;;
16037;SDS011;8123;50.906;6.172;2024-02-21T10:19:18;13.53;;;4.33;;
16037;SDS011;8123;50.906;6.172;2024-02-21T10:21:44;12.03;;;4.07;;
16037;SDS011;8123;50.906;6.172;2024-02-21T10:24:28;19.93;;;4.30;;
16037;SDS011;8123;50.906;6.172;2024-02-21T10:27:04;7.27;;;3.70;;
16037;SDS011;8123;50.906;6.172;2024-02-21T10:29:34;4.53;;;3.97;;
16037;SDS011;8123;50.906;6.172;2024-02-21T10:34:32;14.47;;;3.83;;
16037;SDS011;8123;50.906;6.172;2024-02-21T10:37:05;8.47;;;3.90;;
16037;SDS011;8123;50.906;6.172;2024-02-21T10:39:32;4.23;;;3.70;;
16037;SDS011;8123;50.906;6.172;2024-02-21T10:42:00;15.87;;;4.27;;
16037;SDS011;8123;50.906;6.172;2024-02-21T10:44:30;22.53;;;4.27;;
16037;SDS011;8123;50.906;6.172;2024-02-21T10:46:57;11.37;;;3.90;;
16037;SDS011;8123;50.906;6.172;2024-02-21T10:49:23;5.93;;;3.60;;
16037;SDS011;8123;50.906;6.172;2024-02-21T10:51:50;12.80;;;4.40;;
16037;SDS011;8123;50.906;6.172;2024-02-21T10:57:08;8.50;;;4.00;;
16037;SDS011;8123;50.906;6.172;2024-02-21T10:59:36;17.97;;;4.77;;
16037;SDS011;8123;50.906;6.172;2024-02-21T11:02:04;11.83;;;3.50;;
16037;SDS011;8123;50.906;6.172;2024-02-21T11:04:30;7.60;;;3.60;;
16037;SDS011;8123;50.906;6.172;2024-02-21T11:06:57;8.17;;;4.07;;
16037;SDS011;8123;50.906;6.172;2024-02-21T11:09:31;10.57;;;4.67;;
16037;SDS011;8123;50.906;6.172;2024-02-21T11:11:58;7.53;;;4.17;;
16037;SDS011;8123;50.906;6.172;2024-02-21T11:14:27;12.47;;;4.10;;
16037;SDS011;8123;50.906;6.172;2024-02-21T11:16:53;11.97;;;4.00;;
16037;SDS011;8123;50.906;6.172;2024-02-21T11:19:27;12.83;;;5.10;;
16037;SDS011;8123;50.906;6.172;2024-02-21T11:21:54;10.13;;;5.60;;
16037;SDS011;8123;50.906;6.172;2024-02-21T11:24:40;7.23;;;4.30;;
16037;SDS011;8123;50.906;6.172;2024-02-21T11:27:20;13.80;;;5.53;;
16037;SDS011;8123;50.906;6.172;2024-02-21T11:29:49;9.47;;;3.67;;
16037;SDS011;8123;50.906;6.172;2024-02-21T11:32:23;13.63;;;4.50;;
16037;SDS011;8123;50.906;6.172;2024-02-21T11:34:54;10.90;;;4.83;;
16037;SDS011;8123;50.906;6.172;2024-02-21T11:37:31;13.20;;;4.60;;
16037;SDS011;8123;50.906;6.172;2024-02-21T11:40:04;8.80;;;4.13;;
16037;SDS011;8123;50.906;6.172;2024-02-21T11:42:32;19.03;;;4.60;;
16037;SDS011;8123;50.906;6.172;2024-02-21T11:44:59;11.93;;;4.63;;
16037;SDS011;8123;50.906;6.172;2024-02-21T11:47:25;9.53;;;4.10;;
16037;SDS011;8123;50.906;6.172;2024-02-21T11:49:53;9.47;;;4.20;;
16037;SDS011;8123;50.906;6.172;2024-02-21T11:52:20;10.93;;;3.97;;
16037;SDS011;8123;50.906;6.172;2024-02-21T11:54:49;11.90;;;4.23;;
16037;SDS011;8123;50.906;6.172;2024-02-21T11:57:15;11.93;;;4.93;;
16037;SDS011;8123;50.906;6.172;2024-02-21T11:59:43;10.93;;;3.90;;
16037;SDS011;8123;50.906;6.172;2024-02-21T12:02:09;5.90;;;3.37;;
16037;SDS011;8123;50.906;6.172;2024-02-21T12:04:35;14.87;;;6.23;;
16037;SDS011;8123;50.906;6.172;2024-02-21T12:07:01;9.03;;;3.80;;
16037;SDS011;8123;50.906;6.172;2024-02-21T12:09:29;10.30;;;4.70;;
16037;SDS011;8123;50.906;6.172;2024-02-21T12:12:02;14.10;;;4.07;;
16037;SDS011;8123;50.906;6.172;2024-02-21T12:14:29;14.67;;;3.60;;
16037;SDS011;8123;50.906;6.172;2024-02-21T12:16:55;10.37;;;3.97;;
16037;SDS011;8123;50.906;6.172;2024-02-21T12:19:21;10.23;;;4.00;;
16037;SDS011;8123;50.906;6.172;2024-02-21T12:21:48;8.20;;;4.30;;
16037;SDS011;8123;50.906;6.172;2024-02-21T12:24:21;8.13;;;5.60;;
16037;SDS011;8123;50.906;6.172;2024-02-21T12:26:55;14.23;;;5.27;;
16037;SDS011;8123;50.906;6.172;2024-02-21T12:29:21;10.80;;;5.20;;
16037;SDS011;8123;50.906;6.172;2024-02-21T12:31:49;5.60;;;4.50;;
16037;SDS011;8123;50.906;6.172;2024-02-21T12:34:15;7.23;;;4.43;;
16037;SDS011;8123;50.906;6.172;2024-02-21T12:36:45;12.57;;;4.70;;
16037;SDS011;8123;50.906;6.172;2024-02-21T12:39:13;14.30;;;5.63;;
16037;SDS011;8123;50.906;6.172;2024-02-21T12:41:39;12.00;;;6.03;;
16037;SDS011;8123;50.906;6.172;2024-02-21T12:44:08;14.37;;;4.97;;
16037;SDS011;8123;50.906;6.172;2024-02-21T12:46:36;11.90;;;4.93;;
16037;SDS011;8123;50.906;6.172;2024-02-21T12:49:02;10.50;;;5.43;;
16037;SDS011;8123;50.906;6.172;2024-02-21T12:51:28;9.50;;;4.80;;
16037;SDS011;8123;50.906;6.172;2024-02-21T12:53:57;12.13;;;4.80;;
16037;SDS011;8123;50.906;6.172;2024-02-21T12:56:23;11.33;;;5.10;;
16037;SDS011;8123;50.906;6.172;2024-02-21T12:58:51;10.03;;;4.47;;
16037;SDS011;8123;50.906;6.172;2024-02-21T13:01:17;12.40;;;4.60;;
16037;SDS011;8123;50.906;6.172;2024-02-21T13:03:43;5.17;;;4.33;;
16037;SDS011;8123;50.906;6.172;2024-02-21T13:06:08;8.30;;;4.20;;
16037;SDS011;8123;50.906;6.172;2024-02-21T13:08:37;6.30;;;4.07;;
16037;SDS011;8123;50.906;6.172;2024-02-21T13:11:02;9.23;;;4.37;;
16037;SDS011;8123;50.906;6.172;2024-02-21T13:13:29;7.40;;;3.87;;
16037;SDS011;8123;50.906;6.172;2024-02-21T13:15:55;5.87;;;3.57;;
16037;SDS011;8123;50.906;6.172;2024-02-21T13:18:20;7.17;;;4.00;;
16037;SDS011;8123;50.906;6.172;2024-02-21T13:20:46;13.53;;;5.07;;
16037;SDS011;8123;50.906;6.172;2024-02-21T13:23:12;16.07;;;3.80;;
16037;SDS011;8123;50.906;6.172;2024-02-21T13:25:38;10.13;;;4.00;;
16037;SDS011;8123;50.906;6.172;2024-02-21T13:28:04;7.60;;;3.60;;
16037;SDS011;8123;50.906;6.172;2024-02-21T13:30:30;9.07;;;4.13;;
16037;SDS011;8123;50.906;6.172;2024-02-21T13:32:55;7.80;;;4.53;;
16037;SDS011;8123;50.906;6.172;2024-02-21T13:35:21;9.87;;;3.63;;
16037;SDS011;8123;50.906;6.172;2024-02-21T13:37:47;7.23;;;3.60;;
16037;SDS011;8123;50.906;6.172;2024-02-21T13:40:12;8.80;;;3.90;;
16037;SDS011;8123;50.906;6.172;2024-02-21T13:42:39;10.53;;;3.77;;
16037;SDS011;8123;50.906;6.172;2024-02-21T13:45:05;12.93;;;4.03;;
16037;SDS011;8123;50.906;6.172;2024-02-21T13:47:34;6.37;;;3.53;;
16037;SDS011;8123;50.906;6.172;2024-02-21T13:50:01;9.10;;;4.33;;
16037;SDS011;8123;50.906;6.172;2024-02-21T13:52:29;10.80;;;4.20;;
16037;SDS011;8123;50.906;6.172;2024-02-21T13:54:55;11.27;;;3.90;;
16037;SDS011;8123;50.906;6.172;2024-02-21T13:57:21;6.33;;;3.90;;
16037;SDS011;8123;50.906;6.172;2024-02-21T13:59:47;7.50;;;3.63;;
16037;SDS011;8123;50.906;6.172;2024-02-21T14:02:12;15.80;;;3.90;;
16037;SDS011;8123;50.906;6.172;2024-02-21T14:04:38;7.33;;;3.00;;
16037;SDS011;8123;50.906;6.172;2024-02-21T14:07:04;17.13;;;3.07;;
16037;SDS011;8123;50.906;6.172;2024-02-21T14:09:29;6.67;;;3.40;;
16037;SDS011;8123;50.906;6.172;2024-02-21T14:11:55;8.73;;;4.47;;
16037;SDS011;8123;50.906;6.172;2024-02-21T14:14:21;7.50;;;2.70;;
16037;SDS011;8123;50.906;6.172;2024-02-21T14:16:47;5.00;;;3.23;;
16037;SDS011;8123;50.906;6.172;2024-02-21T14:19:13;11.03;;;2.97;;
16037;SDS011;8123;50.906;6.172;2024-02-21T14:21:39;3.90;;;3.07;;
16037;SDS011;8123;50.906;6.172;2024-02-21T14:24:05;3.47;;;2.43;;
16037;SDS011;8123;50.906;6.172;2024-02-21T14:26:31;5.13;;;2.63;;
16037;SDS011;8123;50.906;6.172;2024-02-21T14:28:57;7.20;;;2.70;;
16037;SDS011;8123;50.906;6.172;2024-02-21T14:31:23;7.73;;;2.80;;
16037;SDS011;8123;50.906;6.172;2024-02-21T14:33:50;10.07;;;2.70;;
16037;SDS011;8123;50.906;6.172;2024-02-21T14:36:16;6.63;;;2.60;;
16037;SDS011;8123;50.906;6.172;2024-02-21T14:38:42;3.10;;;2.53;;
16037;SDS011;8123;50.906;6.172;2024-02-21T14:41:08;7.70;;;2.53;;
16037;SDS011;8123;50.906;6.172;2024-02-21T14:43:37;4.83;;;2.83;;
16037;SDS011;8123;50.906;6.172;2024-02-21T14:46:02;5.70;;;2.53;;
16037;SDS011;8123;50.906;6.172;2024-02-21T14:48:29;8.87;;;2.27;;